sensor_id;sensor_type;location;lat;lon;timestamp;P1;durP1;ratioP1;P2;durP2;ratioP2
6547;SDS011;3307;52.416;16.862;2023-11-21T00:01:51;34.33;;;25.27;;
6547;SDS011;3307;52.416;16.862;2023-11-21T00:04:17;30.07;;;23.50;;
6547;SDS011;3307;52.416;16.862;2023-11-21T00:06:42;37.50;;;26.20;;
6547;SDS011;3307;52.416;16.862;2023-11-21T00:09:07;34.30;;;24.50;;
6547;SDS011;3307;52.416;16.862;2023-11-21T00:11:33;33.13;;;26.37;;
6547;SDS011;3307;52.416;16.862;2023-11-21T00:13:59;30.77;;;24.57;;
6547;SDS011;3307;52.416;16.862;2023-11-21T00:16:24;35.30;;;25.23;;
6547;SDS011;3307;52.416;16.862;2023-11-21T00:18:50;35.50;;;26.10;;
6547;SDS011;3307;52.416;16.862;2023-11-21T00:21:16;34.30;;;25.07;;
6547;SDS011;3307;52.416;16.862;2023-11-21T00:23:41;35.57;;;25.40;;
6547;SDS011;3307;52.416;16.862;2023-11-21T00:26:07;30.93;;;23.03;;
6547;SDS011;3307;52.416;16.862;2023-11-21T00:28:32;35.63;;;25.80;;
6547;SDS011;3307;52.416;16.862;2023-11-21T00:30:58;33.80;;;25.30;;
6547;SDS011;3307;52.416;16.862;2023-11-21T00:33:23;36.07;;;25.90;;
6547;SDS011;3307;52.416;16.862;2023-11-21T00:35:50;33.67;;;26.25;;
6547;SDS011;3307;52.416;16.862;2023-11-21T00:38:15;35.60;;;24.70;;
6547;SDS011;3307;52.416;16.862;2023-11-21T00:40:43;34.38;;;24.40;;
6547;SDS011;3307;52.416;16.862;2023-11-21T00:43:08;39.40;;;30.40;;
6547;SDS011;3307;52.416;16.862;2023-11-21T00:45:34;34.10;;;26.23;;
6547;SDS011;3307;52.416;16.862;2023-11-21T00:48:00;32.40;;;25.73;;
6547;SDS011;3307;52.416;16.862;2023-11-21T00:50:25;36.63;;;27.67;;
6547;SDS011;3307;52.416;16.862;2023-11-21T00:52:51;36.90;;;27.10;;
6547;SDS011;3307;52.416;16.862;2023-11-21T00:55:16;35.80;;;27.40;;
6547;SDS011;3307;52.416;16.862;2023-11-21T00:57:43;38.88;;;25.80;;
6547;SDS011;3307;52.416;16.862;2023-11-21T01:00:08;34.37;;;26.40;;
6547;SDS011;3307;52.416;16.862;2023-11-21T01:02:41;38.88;;;27.50;;
6547;SDS011;3307;52.416;16.862;2023-11-21T01:05:08;37.67;;;27.30;;
6547;SDS011;3307;52.416;16.862;2023-11-21T01:07:33;37.27;;;26.70;;
6547;SDS011;3307;52.416;16.862;2023-11-21T01:09:59;36.40;;;26.97;;
6547;SDS011;3307;52.416;16.862;2023-11-21T01:12:24;49.03;;;32.50;;
6547;SDS011;3307;52.416;16.862;2023-11-21T01:14:50;41.70;;;31.07;;
6547;SDS011;3307;52.416;16.862;2023-11-21T01:17:15;40.40;;;29.93;;
6547;SDS011;3307;52.416;16.862;2023-11-21T01:19:41;41.77;;;29.23;;
6547;SDS011;3307;52.416;16.862;2023-11-21T01:22:07;37.30;;;29.73;;
6547;SDS011;3307;52.416;16.862;2023-11-21T01:24:33;43.40;;;30.92;;
6547;SDS011;3307;52.416;16.862;2023-11-21T01:26:59;48.57;;;32.40;;
6547;SDS011;3307;52.416;16.862;2023-11-21T01:29:24;46.47;;;32.13;;
6547;SDS011;3307;52.416;16.862;2023-11-21T01:31:49;42.40;;;29.60;;
6547;SDS011;3307;52.416;16.862;2023-11-21T01:34:15;45.17;;;31.90;;
6547;SDS011;3307;52.416;16.862;2023-11-21T01:36:40;41.43;;;30.97;;
6547;SDS011;3307;52.416;16.862;2023-11-21T01:39:05;46.30;;;32.03;;
6547;SDS011;3307;52.416;16.862;2023-11-21T01:41:33;46.63;;;31.52;;
6547;SDS011;3307;52.416;16.862;2023-11-21T01:44:00;42.75;;;30.75;;
6547;SDS011;3307;52.416;16.862;2023-11-21T01:46:25;44.40;;;30.77;;
6547;SDS011;3307;52.416;16.862;2023-11-21T01:48:50;46.60;;;31.77;;
6547;SDS011;3307;52.416;16.862;2023-11-21T01:51:16;40.07;;;32.30;;
6547;SDS011;3307;52.416;16.862;2023-11-21T01:53:42;42.77;;;31.97;;
6547;SDS011;3307;52.416;16.862;2023-11-21T01:56:07;45.10;;;32.07;;
6547;SDS011;3307;52.416;16.862;2023-11-21T01:58:34;44.78;;;31.35;;
6547;SDS011;3307;52.416;16.862;2023-11-21T02:01:00;48.00;;;31.58;;
6547;SDS011;3307;52.416;16.862;2023-11-21T02:03:26;46.83;;;30.77;;
6547;SDS011;3307;52.416;16.862;2023-11-21T02:05:52;49.57;;;31.73;;
6547;SDS011;3307;52.416;16.862;2023-11-21T02:08:18;48.97;;;32.65;;
6547;SDS011;3307;52.416;16.862;2023-11-21T02:10:44;46.10;;;31.83;;
6547;SDS011;3307;52.416;16.862;2023-11-21T02:13:10;47.65;;;31.90;;
6547;SDS011;3307;52.416;16.862;2023-11-21T02:15:35;48.23;;;32.33;;
6547;SDS011;3307;52.416;16.862;2023-11-21T02:18:03;47.80;;;34.00;;
6547;SDS011;3307;52.416;16.862;2023-11-21T02:20:31;47.58;;;32.88;;
6547;SDS011;3307;52.416;16.862;2023-11-21T02:22:59;50.17;;;32.60;;
6547;SDS011;3307;52.416;16.862;2023-11-21T02:25:25;46.60;;;33.00;;
6547;SDS011;3307;52.416;16.862;2023-11-21T02:27:55;50.25;;;32.67;;
6547;SDS011;3307;52.416;16.862;2023-11-21T02:30:21;43.10;;;31.85;;
6547;SDS011;3307;52.416;16.862;2023-11-21T02:32:47;52.92;;;34.35;;
6547;SDS011;3307;52.416;16.862;2023-11-21T02:35:13;45.47;;;31.35;;
6547;SDS011;3307;52.416;16.862;2023-11-21T02:37:39;46.03;;;31.17;;
6547;SDS011;3307;52.416;16.862;2023-11-21T02:40:06;51.95;;;34.10;;
6547;SDS011;3307;52.416;16.862;2023-11-21T02:42:34;46.70;;;30.95;;
6547;SDS011;3307;52.416;16.862;2023-11-21T02:45:00;47.10;;;32.33;;
6547;SDS011;3307;52.416;16.862;2023-11-21T02:47:25;47.17;;;31.10;;
6547;SDS011;3307;52.416;16.862;2023-11-21T02:49:50;50.03;;;34.40;;
6547;SDS011;3307;52.416;16.862;2023-11-21T02:52:17;54.42;;;35.13;;
6547;SDS011;3307;52.416;16.862;2023-11-21T02:54:42;42.93;;;30.33;;
6547;SDS011;3307;52.416;16.862;2023-11-21T02:57:08;46.10;;;32.10;;
6547;SDS011;3307;52.416;16.862;2023-11-21T02:59:33;47.57;;;31.40;;
6547;SDS011;3307;52.416;16.862;2023-11-21T03:01:59;47.85;;;31.75;;
6547;SDS011;3307;52.416;16.862;2023-11-21T03:04:25;56.70;;;35.60;;
6547;SDS011;3307;52.416;16.862;2023-11-21T03:06:51;47.07;;;31.03;;
6547;SDS011;3307;52.416;16.862;2023-11-21T03:09:16;45.77;;;31.57;;
6547;SDS011;3307;52.416;16.862;2023-11-21T03:11:41;56.83;;;35.90;;
6547;SDS011;3307;52.416;16.862;2023-11-21T03:14:07;51.17;;;32.70;;
6547;SDS011;3307;52.416;16.862;2023-11-21T03:16:32;47.97;;;35.20;;
6547;SDS011;3307;52.416;16.862;2023-11-21T03:18:57;50.10;;;35.30;;
6547;SDS011;3307;52.416;16.862;2023-11-21T03:21:23;51.17;;;35.50;;
6547;SDS011;3307;52.416;16.862;2023-11-21T03:23:49;50.88;;;33.40;;
6547;SDS011;3307;52.416;16.862;2023-11-21T03:26:15;52.83;;;35.90;;
6547;SDS011;3307;52.416;16.862;2023-11-21T03:28:41;42.95;;;30.10;;
6547;SDS011;3307;52.416;16.862;2023-11-21T03:31:07;45.47;;;31.67;;
6547;SDS011;3307;52.416;16.862;2023-11-21T03:33:33;44.47;;;31.20;;
6547;SDS011;3307;52.416;16.862;2023-11-21T03:36:00;39.05;;;29.65;;
6547;SDS011;3307;52.416;16.862;2023-11-21T03:38:25;43.80;;;29.20;;
6547;SDS011;3307;52.416;16.862;2023-11-21T03:40:51;41.67;;;29.00;;
6547;SDS011;3307;52.416;16.862;2023-11-21T03:43:16;43.10;;;30.37;;
6547;SDS011;3307;52.416;16.862;2023-11-21T03:45:41;41.80;;;26.77;;
6547;SDS011;3307;52.416;16.862;2023-11-21T03:48:07;34.13;;;24.33;;
6547;SDS011;3307;52.416;16.862;2023-11-21T03:50:33;39.17;;;27.25;;
6547;SDS011;3307;52.416;16.862;2023-11-21T03:52:59;34.30;;;26.20;;
6547;SDS011;3307;52.416;16.862;2023-11-21T03:55:24;31.20;;;25.37;;
6547;SDS011;3307;52.416;16.862;2023-11-21T03:57:50;35.97;;;25.80;;
6547;SDS011;3307;52.416;16.862;2023-11-21T04:00:16;37.58;;;26.50;;
6547;SDS011;3307;52.416;16.862;2023-11-21T04:02:42;27.57;;;21.90;;
6547;SDS011;3307;52.416;16.862;2023-11-21T04:05:07;30.20;;;21.97;;
6547;SDS011;3307;52.416;16.862;2023-11-21T04:07:34;30.63;;;20.95;;
6547;SDS011;3307;52.416;16.862;2023-11-21T04:09:59;25.03;;;19.33;;
6547;SDS011;3307;52.416;16.862;2023-11-21T04:12:25;22.03;;;17.90;;
6547;SDS011;3307;52.416;16.862;2023-11-21T04:14:50;23.17;;;17.80;;
6547;SDS011;3307;52.416;16.862;2023-11-21T04:17:17;26.27;;;19.53;;
6547;SDS011;3307;52.416;16.862;2023-11-21T04:19:43;26.23;;;17.42;;
6547;SDS011;3307;52.416;16.862;2023-11-21T04:22:08;27.20;;;18.07;;
6547;SDS011;3307;52.416;16.862;2023-11-21T04:24:34;31.00;;;21.07;;
6547;SDS011;3307;52.416;16.862;2023-11-21T04:26:59;24.60;;;18.93;;
6547;SDS011;3307;52.416;16.862;2023-11-21T04:29:24;25.30;;;19.20;;
6547;SDS011;3307;52.416;16.862;2023-11-21T04:31:50;25.30;;;19.37;;
6547;SDS011;3307;52.416;16.862;2023-11-21T04:34:15;27.73;;;19.97;;
6547;SDS011;3307;52.416;16.862;2023-11-21T04:36:40;30.50;;;21.10;;
6547;SDS011;3307;52.416;16.862;2023-11-21T04:39:06;25.40;;;19.70;;
6547;SDS011;3307;52.416;16.862;2023-11-21T04:41:32;25.07;;;18.87;;
6547;SDS011;3307;52.416;16.862;2023-11-21T04:43:57;27.20;;;18.67;;
6547;SDS011;3307;52.416;16.862;2023-11-21T04:46:23;31.25;;;20.45;;
6547;SDS011;3307;52.416;16.862;2023-11-21T04:48:49;28.80;;;20.40;;
6547;SDS011;3307;52.416;16.862;2023-11-21T04:51:14;27.80;;;20.40;;
6547;SDS011;3307;52.416;16.862;2023-11-21T04:53:39;24.73;;;18.57;;
6547;SDS011;3307;52.416;16.862;2023-11-21T04:56:05;21.80;;;16.33;;
6547;SDS011;3307;52.416;16.862;2023-11-21T04:58:30;21.17;;;17.07;;
6547;SDS011;3307;52.416;16.862;2023-11-21T05:00:57;23.83;;;18.37;;
6547;SDS011;3307;52.416;16.862;2023-11-21T05:03:22;22.05;;;17.45;;
6547;SDS011;3307;52.416;16.862;2023-11-21T05:05:48;20.90;;;15.10;;
6547;SDS011;3307;52.416;16.862;2023-11-21T05:08:14;23.90;;;16.93;;
6547;SDS011;3307;52.416;16.862;2023-11-21T05:10:39;23.40;;;17.90;;
6547;SDS011;3307;52.416;16.862;2023-11-21T05:13:05;17.87;;;14.33;;
6547;SDS011;3307;52.416;16.862;2023-11-21T05:15:34;20.17;;;14.93;;
6547;SDS011;3307;52.416;16.862;2023-11-21T05:18:00;18.30;;;15.40;;
6547;SDS011;3307;52.416;16.862;2023-11-21T05:20:25;18.60;;;14.80;;
6547;SDS011;3307;52.416;16.862;2023-11-21T05:22:50;16.90;;;14.40;;
6547;SDS011;3307;52.416;16.862;2023-11-21T05:25:16;16.73;;;14.23;;
6547;SDS011;3307;52.416;16.862;2023-11-21T05:27:47;15.02;;;13.43;;
6547;SDS011;3307;52.416;16.862;2023-11-21T05:30:13;14.98;;;12.50;;
6547;SDS011;3307;52.416;16.862;2023-11-21T05:32:39;14.35;;;12.65;;
6547;SDS011;3307;52.416;16.862;2023-11-21T05:35:05;14.80;;;12.13;;
6547;SDS011;3307;52.416;16.862;2023-11-21T05:37:40;15.35;;;12.25;;
6547;SDS011;3307;52.416;16.862;2023-11-21T05:40:06;12.20;;;10.90;;
6547;SDS011;3307;52.416;16.862;2023-11-21T05:42:33;13.30;;;11.38;;
6547;SDS011;3307;52.416;16.862;2023-11-21T05:44:59;14.23;;;12.70;;
6547;SDS011;3307;52.416;16.862;2023-11-21T05:47:24;12.50;;;11.30;;
6547;SDS011;3307;52.416;16.862;2023-11-21T05:49:53;14.50;;;12.95;;
6547;SDS011;3307;52.416;16.862;2023-11-21T05:52:18;12.60;;;11.33;;
6547;SDS011;3307;52.416;16.862;2023-11-21T05:54:45;11.82;;;10.63;;
6547;SDS011;3307;52.416;16.862;2023-11-21T05:57:11;11.57;;;10.40;;
6547;SDS011;3307;52.416;16.862;2023-11-21T05:59:36;13.43;;;12.13;;
6547;SDS011;3307;52.416;16.862;2023-11-21T06:02:01;12.87;;;11.60;;
6547;SDS011;3307;52.416;16.862;2023-11-21T06:04:27;13.07;;;11.70;;
6547;SDS011;3307;52.416;16.862;2023-11-21T06:06:52;10.97;;;9.87;;
6547;SDS011;3307;52.416;16.862;2023-11-21T06:09:18;12.50;;;10.23;;
6547;SDS011;3307;52.416;16.862;2023-11-21T06:11:43;11.87;;;10.40;;
6547;SDS011;3307;52.416;16.862;2023-11-21T06:14:08;12.73;;;10.57;;
6547;SDS011;3307;52.416;16.862;2023-11-21T06:16:34;11.50;;;10.40;;
6547;SDS011;3307;52.416;16.862;2023-11-21T06:19:00;12.23;;;11.03;;
6547;SDS011;3307;52.416;16.862;2023-11-21T06:21:26;11.52;;;10.52;;
6547;SDS011;3307;52.416;16.862;2023-11-21T06:23:51;11.23;;;10.03;;
6547;SDS011;3307;52.416;16.862;2023-11-21T06:26:18;10.60;;;9.60;;
6547;SDS011;3307;52.416;16.862;2023-11-21T06:28:43;12.03;;;10.93;;
6547;SDS011;3307;52.416;16.862;2023-11-21T06:31:09;11.70;;;10.60;;
6547;SDS011;3307;52.416;16.862;2023-11-21T06:33:35;12.05;;;10.85;;
6547;SDS011;3307;52.416;16.862;2023-11-21T06:36:01;12.80;;;11.27;;
6547;SDS011;3307;52.416;16.862;2023-11-21T06:38:27;11.60;;;10.50;;
6547;SDS011;3307;52.416;16.862;2023-11-21T06:40:54;14.48;;;12.95;;
6547;SDS011;3307;52.416;16.862;2023-11-21T06:43:20;15.00;;;13.00;;
6547;SDS011;3307;52.416;16.862;2023-11-21T06:45:47;15.88;;;14.27;;
6547;SDS011;3307;52.416;16.862;2023-11-21T06:48:12;14.77;;;13.37;;
6547;SDS011;3307;52.416;16.862;2023-11-21T06:50:38;15.10;;;13.50;;
6547;SDS011;3307;52.416;16.862;2023-11-21T06:53:03;16.13;;;14.40;;
6547;SDS011;3307;52.416;16.862;2023-11-21T06:55:31;14.55;;;13.05;;
6547;SDS011;3307;52.416;16.862;2023-11-21T06:57:57;15.03;;;13.53;;
6547;SDS011;3307;52.416;16.862;2023-11-21T07:00:23;15.33;;;13.73;;
6547;SDS011;3307;52.416;16.862;2023-11-21T07:02:48;16.17;;;14.57;;
6547;SDS011;3307;52.416;16.862;2023-11-21T07:05:14;16.10;;;14.40;;
6547;SDS011;3307;52.416;16.862;2023-11-21T07:07:40;18.80;;;15.18;;
6547;SDS011;3307;52.416;16.862;2023-11-21T07:10:05;15.57;;;14.17;;
6547;SDS011;3307;52.416;16.862;2023-11-21T07:12:32;14.98;;;13.48;;
6547;SDS011;3307;52.416;16.862;2023-11-21T07:14:58;14.27;;;12.83;;
6547;SDS011;3307;52.416;16.862;2023-11-21T07:17:24;14.50;;;13.10;;
6547;SDS011;3307;52.416;16.862;2023-11-21T07:19:49;12.77;;;11.47;;
6547;SDS011;3307;52.416;16.862;2023-11-21T07:22:15;12.73;;;11.43;;
6547;SDS011;3307;52.416;16.862;2023-11-21T07:24:46;13.90;;;12.52;;
6547;SDS011;3307;52.416;16.862;2023-11-21T07:27:13;14.00;;;12.05;;
6547;SDS011;3307;52.416;16.862;2023-11-21T07:29:38;14.13;;;12.73;;
6547;SDS011;3307;52.416;16.862;2023-11-21T07:32:04;14.85;;;13.35;;
6547;SDS011;3307;52.416;16.862;2023-11-21T07:34:30;14.57;;;13.17;;
6547;SDS011;3307;52.416;16.862;2023-11-21T07:36:56;13.50;;;12.20;;
6547;SDS011;3307;52.416;16.862;2023-11-21T07:39:21;13.87;;;12.43;;
6547;SDS011;3307;52.416;16.862;2023-11-21T07:41:46;13.83;;;11.40;;
6547;SDS011;3307;52.416;16.862;2023-11-21T07:44:13;11.63;;;10.43;;
6547;SDS011;3307;52.416;16.862;2023-11-21T07:46:40;14.13;;;11.80;;
6547;SDS011;3307;52.416;16.862;2023-11-21T07:49:06;14.90;;;13.40;;
6547;SDS011;3307;52.416;16.862;2023-11-21T07:51:31;13.27;;;11.70;;
6547;SDS011;3307;52.416;16.862;2023-11-21T07:53:56;14.10;;;11.80;;
6547;SDS011;3307;52.416;16.862;2023-11-21T07:56:21;12.87;;;11.50;;
6547;SDS011;3307;52.416;16.862;2023-11-21T07:58:47;14.00;;;11.83;;
6547;SDS011;3307;52.416;16.862;2023-11-21T08:01:12;12.40;;;11.00;;
6547;SDS011;3307;52.416;16.862;2023-11-21T08:03:38;13.30;;;11.83;;
6547;SDS011;3307;52.416;16.862;2023-11-21T08:06:03;11.77;;;10.30;;
6547;SDS011;3307;52.416;16.862;2023-11-21T08:08:30;13.05;;;11.65;;
6547;SDS011;3307;52.416;16.862;2023-11-21T08:10:57;11.65;;;10.55;;
6547;SDS011;3307;52.416;16.862;2023-11-21T08:13:23;9.50;;;8.60;;
6547;SDS011;3307;52.416;16.862;2023-11-21T08:15:49;10.38;;;9.38;;
6547;SDS011;3307;52.416;16.862;2023-11-21T08:18:14;8.83;;;8.03;;
6547;SDS011;3307;52.416;16.862;2023-11-21T08:20:40;10.97;;;9.53;;
6547;SDS011;3307;52.416;16.862;2023-11-21T08:23:05;9.07;;;8.17;;
6547;SDS011;3307;52.416;16.862;2023-11-21T08:25:31;8.17;;;7.37;;
6547;SDS011;3307;52.416;16.862;2023-11-21T08:27:59;8.02;;;6.75;;
6547;SDS011;3307;52.416;16.862;2023-11-21T08:30:25;7.80;;;7.10;;
6547;SDS011;3307;52.416;16.862;2023-11-21T08:32:53;8.13;;;7.38;;
6547;SDS011;3307;52.416;16.862;2023-11-21T08:35:18;8.10;;;7.30;;
6547;SDS011;3307;52.416;16.862;2023-11-21T08:37:44;9.27;;;7.10;;
6547;SDS011;3307;52.416;16.862;2023-11-21T08:40:10;7.93;;;7.23;;
6547;SDS011;3307;52.416;16.862;2023-11-21T08:42:37;8.55;;;7.75;;
6547;SDS011;3307;52.416;16.862;2023-11-21T08:45:02;8.33;;;7.53;;
6547;SDS011;3307;52.416;16.862;2023-11-21T08:47:29;9.23;;;8.43;;
6547;SDS011;3307;52.416;16.862;2023-11-21T08:49:54;10.27;;;9.20;;
6547;SDS011;3307;52.416;16.862;2023-11-21T08:52:19;8.90;;;8.00;;
6547;SDS011;3307;52.416;16.862;2023-11-21T08:54:48;9.20;;;8.30;;
6547;SDS011;3307;52.416;16.862;2023-11-21T08:57:20;10.13;;;9.13;;
6547;SDS011;3307;52.416;16.862;2023-11-21T08:59:46;10.80;;;9.80;;
6547;SDS011;3307;52.416;16.862;2023-11-21T09:02:12;12.20;;;10.90;;
6547;SDS011;3307;52.416;16.862;2023-11-21T09:04:37;11.17;;;9.70;;
6547;SDS011;3307;52.416;16.862;2023-11-21T09:07:03;10.87;;;9.77;;
6547;SDS011;3307;52.416;16.862;2023-11-21T09:09:28;14.20;;;12.27;;
6547;SDS011;3307;52.416;16.862;2023-11-21T09:11:54;15.52;;;14.05;;
6547;SDS011;3307;52.416;16.862;2023-11-21T09:14:20;25.00;;;21.67;;
6547;SDS011;3307;52.416;16.862;2023-11-21T09:16:45;22.40;;;19.90;;
6547;SDS011;3307;52.416;16.862;2023-11-21T09:19:10;18.23;;;15.00;;
6547;SDS011;3307;52.416;16.862;2023-11-21T09:21:36;14.48;;;13.02;;
6547;SDS011;3307;52.416;16.862;2023-11-21T09:24:02;17.47;;;15.77;;
6547;SDS011;3307;52.416;16.862;2023-11-21T09:26:28;16.07;;;14.10;;
6547;SDS011;3307;52.416;16.862;2023-11-21T09:28:55;18.05;;;16.33;;
6547;SDS011;3307;52.416;16.862;2023-11-21T09:31:21;17.58;;;15.85;;
6547;SDS011;3307;52.416;16.862;2023-11-21T09:33:48;17.55;;;15.77;;
6547;SDS011;3307;52.416;16.862;2023-11-21T09:36:13;14.70;;;13.23;;
6547;SDS011;3307;52.416;16.862;2023-11-21T09:38:39;15.87;;;14.27;;
6547;SDS011;3307;52.416;16.862;2023-11-21T09:41:06;40.70;;;36.40;;
6547;SDS011;3307;52.416;16.862;2023-11-21T09:43:46;18.40;;;16.20;;
6547;SDS011;3307;52.416;16.862;2023-11-21T09:46:12;15.02;;;13.60;;
6547;SDS011;3307;52.416;16.862;2023-11-21T09:48:41;15.57;;;14.00;;
6547;SDS011;3307;52.416;16.862;2023-11-21T09:51:07;16.58;;;14.77;;
6547;SDS011;3307;52.416;16.862;2023-11-21T09:53:33;17.60;;;15.47;;
6547;SDS011;3307;52.416;16.862;2023-11-21T09:55:59;18.60;;;16.60;;
6547;SDS011;3307;52.416;16.862;2023-11-21T09:58:27;19.30;;;15.40;;
6547;SDS011;3307;52.416;16.862;2023-11-21T10:00:54;17.40;;;15.52;;
6547;SDS011;3307;52.416;16.862;2023-11-21T10:03:21;17.45;;;15.68;;
6547;SDS011;3307;52.416;16.862;2023-11-21T10:05:46;19.67;;;16.90;;
6547;SDS011;3307;52.416;16.862;2023-11-21T10:08:15;17.17;;;15.48;;
6547;SDS011;3307;52.416;16.862;2023-11-21T10:10:44;15.50;;;14.03;;
6547;SDS011;3307;52.416;16.862;2023-11-21T10:13:11;15.77;;;14.18;;
6547;SDS011;3307;52.416;16.862;2023-11-21T10:15:41;17.52;;;15.68;;
6547;SDS011;3307;52.416;16.862;2023-11-21T10:18:09;17.90;;;15.52;;
6547;SDS011;3307;52.416;16.862;2023-11-21T10:20:34;18.27;;;16.47;;
6547;SDS011;3307;52.416;16.862;2023-11-21T10:23:02;17.50;;;15.57;;
6547;SDS011;3307;52.416;16.862;2023-11-21T10:25:28;20.47;;;18.47;;
6547;SDS011;3307;52.416;16.862;2023-11-21T10:27:58;20.47;;;17.30;;
6547;SDS011;3307;52.416;16.862;2023-11-21T10:30:35;18.30;;;16.40;;
6547;SDS011;3307;52.416;16.862;2023-11-21T10:33:02;17.77;;;16.00;;
6547;SDS011;3307;52.416;16.862;2023-11-21T10:35:47;16.38;;;14.77;;
6547;SDS011;3307;52.416;16.862;2023-11-21T10:38:19;17.25;;;15.52;;
6547;SDS011;3307;52.416;16.862;2023-11-21T10:40:47;18.30;;;16.50;;
6547;SDS011;3307;52.416;16.862;2023-11-21T10:43:14;19.45;;;16.63;;
6547;SDS011;3307;52.416;16.862;2023-11-21T10:45:42;17.38;;;15.57;;
6547;SDS011;3307;52.416;16.862;2023-11-21T10:48:15;18.40;;;16.50;;
6547;SDS011;3307;52.416;16.862;2023-11-21T10:50:40;18.63;;;16.77;;
6547;SDS011;3307;52.416;16.862;2023-11-21T10:53:06;18.17;;;16.33;;
6547;SDS011;3307;52.416;16.862;2023-11-21T10:55:32;18.20;;;16.33;;
6547;SDS011;3307;52.416;16.862;2023-11-21T10:57:59;20.08;;;16.30;;
6547;SDS011;3307;52.416;16.862;2023-11-21T11:00:27;18.98;;;17.00;;
6547;SDS011;3307;52.416;16.862;2023-11-21T11:02:53;18.67;;;16.77;;
6547;SDS011;3307;52.416;16.862;2023-11-21T11:05:24;17.00;;;15.30;;
6547;SDS011;3307;52.416;16.862;2023-11-21T11:07:51;19.65;;;17.70;;
6547;SDS011;3307;52.416;16.862;2023-11-21T11:10:19;21.42;;;18.85;;
6547;SDS011;3307;52.416;16.862;2023-11-21T11:12:51;19.70;;;17.60;;
6547;SDS011;3307;52.416;16.862;2023-11-21T11:15:17;19.58;;;17.20;;
6547;SDS011;3307;52.416;16.862;2023-11-21T11:17:42;20.23;;;18.27;;
6547;SDS011;3307;52.416;16.862;2023-11-21T11:20:10;19.98;;;17.02;;
6547;SDS011;3307;52.416;16.862;2023-11-21T11:22:41;19.65;;;17.58;;
6547;SDS011;3307;52.416;16.862;2023-11-21T11:27:54;19.50;;;17.65;;
6547;SDS011;3307;52.416;16.862;2023-11-21T11:33:14;19.35;;;17.38;;
6547;SDS011;3307;52.416;16.862;2023-11-21T11:39:00;21.02;;;18.50;;
6547;SDS011;3307;52.416;16.862;2023-11-21T11:41:27;17.60;;;15.80;;
6547;SDS011;3307;52.416;16.862;2023-11-21T11:43:57;20.65;;;15.70;;
6547;SDS011;3307;52.416;16.862;2023-11-21T11:49:07;18.42;;;16.63;;
6547;SDS011;3307;52.416;16.862;2023-11-21T11:51:33;19.90;;;17.87;;
6547;SDS011;3307;52.416;16.862;2023-11-21T11:54:00;20.77;;;18.65;;
6547;SDS011;3307;52.416;16.862;2023-11-21T11:58:55;18.47;;;16.53;;
6547;SDS011;3307;52.416;16.862;2023-11-21T12:01:22;22.88;;;18.83;;
6547;SDS011;3307;52.416;16.862;2023-11-21T12:06:40;19.42;;;17.38;;
6547;SDS011;3307;52.416;16.862;2023-11-21T12:09:06;21.60;;;19.27;;
6547;SDS011;3307;52.416;16.862;2023-11-21T12:11:32;20.10;;;18.07;;
6547;SDS011;3307;52.416;16.862;2023-11-21T12:14:01;21.20;;;18.40;;
6547;SDS011;3307;52.416;16.862;2023-11-21T12:16:27;22.10;;;19.25;;
6547;SDS011;3307;52.416;16.862;2023-11-21T12:18:52;23.00;;;20.70;;
6547;SDS011;3307;52.416;16.862;2023-11-21T12:21:19;23.45;;;20.95;;
6547;SDS011;3307;52.416;16.862;2023-11-21T12:23:44;21.83;;;19.50;;
6547;SDS011;3307;52.416;16.862;2023-11-21T12:26:12;23.75;;;21.05;;
6547;SDS011;3307;52.416;16.862;2023-11-21T12:28:38;24.80;;;22.20;;
6547;SDS011;3307;52.416;16.862;2023-11-21T12:31:04;24.40;;;21.80;;
6547;SDS011;3307;52.416;16.862;2023-11-21T12:33:31;25.00;;;21.90;;
6547;SDS011;3307;52.416;16.862;2023-11-21T12:35:58;26.38;;;22.80;;
6547;SDS011;3307;52.416;16.862;2023-11-21T12:38:23;25.37;;;22.10;;
6547;SDS011;3307;52.416;16.862;2023-11-21T12:40:49;24.57;;;21.10;;
6547;SDS011;3307;52.416;16.862;2023-11-21T12:43:15;24.50;;;22.00;;
6547;SDS011;3307;52.416;16.862;2023-11-21T12:45:43;25.08;;;20.50;;
6547;SDS011;3307;52.416;16.862;2023-11-21T12:48:09;24.63;;;21.60;;
6547;SDS011;3307;52.416;16.862;2023-11-21T12:50:36;31.95;;;23.88;;
6547;SDS011;3307;52.416;16.862;2023-11-21T12:53:06;25.92;;;22.25;;
6547;SDS011;3307;52.416;16.862;2023-11-21T12:55:33;27.75;;;22.15;;
6547;SDS011;3307;52.416;16.862;2023-11-21T12:58:03;29.70;;;22.38;;
6547;SDS011;3307;52.416;16.862;2023-11-21T13:00:37;25.55;;;20.85;;
6547;SDS011;3307;52.416;16.862;2023-11-21T13:03:08;26.85;;;21.85;;
6547;SDS011;3307;52.416;16.862;2023-11-21T13:05:38;24.13;;;21.48;;
6547;SDS011;3307;52.416;16.862;2023-11-21T13:08:08;25.15;;;20.60;;
6547;SDS011;3307;52.416;16.862;2023-11-21T13:10:36;24.88;;;21.27;;
6547;SDS011;3307;52.416;16.862;2023-11-21T13:13:04;29.63;;;23.85;;
6547;SDS011;3307;52.416;16.862;2023-11-21T13:15:33;32.88;;;22.60;;
6547;SDS011;3307;52.416;16.862;2023-11-21T13:18:01;25.40;;;21.90;;
6547;SDS011;3307;52.416;16.862;2023-11-21T13:20:27;26.80;;;21.77;;
6547;SDS011;3307;52.416;16.862;2023-11-21T13:22:54;27.03;;;23.50;;
6547;SDS011;3307;52.416;16.862;2023-11-21T13:25:24;25.27;;;22.52;;
6547;SDS011;3307;52.416;16.862;2023-11-21T13:27:52;24.80;;;21.23;;
6547;SDS011;3307;52.416;16.862;2023-11-21T13:30:18;24.65;;;20.77;;
6547;SDS011;3307;52.416;16.862;2023-11-21T13:32:48;27.48;;;21.50;;
6547;SDS011;3307;52.416;16.862;2023-11-21T13:35:17;27.15;;;20.38;;
6547;SDS011;3307;52.416;16.862;2023-11-21T13:37:52;22.95;;;20.52;;
6547;SDS011;3307;52.416;16.862;2023-11-21T13:40:21;24.65;;;20.00;;
6547;SDS011;3307;52.416;16.862;2023-11-21T13:42:51;24.67;;;20.10;;
6547;SDS011;3307;52.416;16.862;2023-11-21T13:45:18;24.25;;;21.17;;
6547;SDS011;3307;52.416;16.862;2023-11-21T13:47:45;23.50;;;19.45;;
6547;SDS011;3307;52.416;16.862;2023-11-21T13:50:11;27.00;;;21.47;;
6547;SDS011;3307;52.416;16.862;2023-11-21T13:52:42;25.85;;;20.05;;
6547;SDS011;3307;52.416;16.862;2023-11-21T13:55:10;27.27;;;20.50;;
6547;SDS011;3307;52.416;16.862;2023-11-21T13:57:40;27.25;;;20.80;;
6547;SDS011;3307;52.416;16.862;2023-11-21T14:00:08;24.73;;;19.85;;
6547;SDS011;3307;52.416;16.862;2023-11-21T14:02:51;23.00;;;19.80;;
6547;SDS011;3307;52.416;16.862;2023-11-21T14:05:16;22.77;;;20.10;;
6547;SDS011;3307;52.416;16.862;2023-11-21T14:07:48;22.60;;;18.80;;
6547;SDS011;3307;52.416;16.862;2023-11-21T14:10:14;22.30;;;19.43;;
6547;SDS011;3307;52.416;16.862;2023-11-21T14:12:41;23.88;;;21.30;;
6547;SDS011;3307;52.416;16.862;2023-11-21T14:15:07;22.25;;;18.65;;
6547;SDS011;3307;52.416;16.862;2023-11-21T14:17:35;23.25;;;19.30;;
6547;SDS011;3307;52.416;16.862;2023-11-21T14:20:02;23.60;;;19.98;;
6547;SDS011;3307;52.416;16.862;2023-11-21T14:22:30;21.77;;;18.77;;
6547;SDS011;3307;52.416;16.862;2023-11-21T14:24:56;21.80;;;18.60;;
6547;SDS011;3307;52.416;16.862;2023-11-21T14:27:24;23.35;;;19.77;;
6547;SDS011;3307;52.416;16.862;2023-11-21T14:29:50;21.13;;;18.83;;
6547;SDS011;3307;52.416;16.862;2023-11-21T14:32:15;20.70;;;18.50;;
6547;SDS011;3307;52.416;16.862;2023-11-21T14:34:41;19.83;;;17.70;;
6547;SDS011;3307;52.416;16.862;2023-11-21T14:37:10;22.05;;;17.88;;
6547;SDS011;3307;52.416;16.862;2023-11-21T14:39:38;21.20;;;18.50;;
6547;SDS011;3307;52.416;16.862;2023-11-21T14:42:09;23.75;;;18.65;;
6547;SDS011;3307;52.416;16.862;2023-11-21T14:44:35;20.27;;;18.00;;
6547;SDS011;3307;52.416;16.862;2023-11-21T14:47:04;20.65;;;18.55;;
6547;SDS011;3307;52.416;16.862;2023-11-21T14:49:32;21.95;;;19.55;;